Union Hill, IL (60969)

11:32 AM CST on December 20, 2014 (GMT -0600)
Union Hill | Change Station
CLOSE
Current Station
Personal Weather Station
Location: Union Hill, IL
Elevation: 623 ft
Nearby Weather Stations

Elev 623 ft 41.11 °N, 88.15 °W | Updated 22 seconds ago

Overcast
Overcast
32.3 °F
Feels Like 27 °F
N
5.0
Wind Variable Wind from SSW
Gusts 7.0 mph

Today
High -- | Low -- °F
--% Chance of Precip.
Yesterday
High -- | Low -- °F
Precip. -- in
7:13 AM 4:26 PM
Waning Crescent, 2% visible
Pressure 30.30 in
Visibility 10.0 miles
Clouds Scattered Clouds 4800 ft
Overcast 6500 ft
Windchill 27 °F
Dew Point 29 °F
Humidity 86%
Rainfall 0.00 in
Snow Depth Not available.
UV 0.0 out of 12
Pollen .10 out of 12
Air Quality Not available.
Flu Activity Not available.
METAR KIKK 201655Z AUTO 17004KT 10SM SCT048 OVC065 00/M03 A3030 RMK AO2 T00001026

More Conditions Fewer Conditions

Pressure 30.30 in
Visibility 10.0 miles
Clouds Scattered Clouds 4800 ft
Overcast 6500 ft
Windchill 27 °F
Dew Point 29 °F
Humidity 86%
Rainfall 0.00 in
Snow Depth Not available.
UV 0.0 out of 12
Pollen .10 out of 12
Air Quality Not available.
Flu Activity Not available.
METAR KIKK 201655Z AUTO 17004KT 10SM SCT048 OVC065 00/M03 A3030 RMK AO2 T00001026

More Conditions Fewer Conditions

10-Day Weather Forecast

Almanac

Astronomy

Dec. 20, 2014 Rise Set
Actual Time
Civil Twilight
Nautical Twilight
Astronomical Twilight
Moon
Length of Visible Light
Length of Day
Tomorrow will be .
, % of the Moon is Illuminated

Today's Extremes

State Highs State Lows

Community

WunderPhotos

Upload Photos

1,779,226 photos uploaded!

WunderBlogs® & News

Nearby

Air Quality

  Air Quality AQ Index Pollutant
Not available.

Snow Depth

Station Depth Elevation

Earthquake Activity

City Distance Mag. Time & Date
Minimum magnitude displayed is 2.5.

Coastal Water Temperatures

Place Temperature

Nearby Weather Stations